Time;durP1;ratioP1;P1;durP2;ratioP2;P2;SDS_P1;SDS_P2;PMS_P1;PMS_P2;Temp;Humidity;BMP_temperature;BMP_pressure;BME280_temperature;BME280_humidity;BME280_pressure;Samples;Min_cycle;Max_cycle;Signal;HPM_P1;HPM_P2
2022/04/19 00:02:29;;;;;;;5.90;3.13;;;;;;;;;;5004145;28;20030;-68
2022/04/19 00:05:14;;;;;;;5.80;3.03;;;;;;;;;;4977739;28;20033;-69
2022/04/19 00:08:00;;;;;;;9.57;3.38;;;;;;;;;;5020939;28;20393;-73
2022/04/19 00:10:45;;;;;;;5.47;2.95;;;;;;;;;;4984419;28;20022;-74
2022/04/19 00:13:30;;;;;;;4.35;2.83;;;;;;;;;;4988749;28;20403;-73
2022/04/19 00:16:16;;;;;;;5.45;2.95;;;;;;;;;;5001845;28;20026;-73
2022/04/19 00:19:01;;;;;;;4.63;2.72;;;;;;;;;;4985644;28;20057;-72
2022/04/19 00:21:46;;;;;;;5.75;2.88;;;;;;;;;;4999877;28;20066;-71
2022/04/19 00:24:32;;;;;;;6.35;3.38;;;;;;;;;;5004565;28;20100;-75
2022/04/19 00:27:17;;;;;;;5.35;3.17;;;;;;;;;;4988197;28;20026;-74
2022/04/19 00:30:03;;;;;;;5.93;3.05;;;;;;;;;;4986087;28;20026;-75
2022/04/19 00:32:48;;;;;;;5.82;2.88;;;;;;;;;;4974471;28;20035;-77
2022/04/19 00:35:34;;;;;;;5.90;2.65;;;;;;;;;;4977886;28;20027;-75
2022/04/19 00:38:19;;;;;;;4.35;3.08;;;;;;;;;;4990885;28;20109;-74
2022/04/19 00:41:04;;;;;;;6.68;3.45;;;;;;;;;;4977224;28;20064;-71
2022/04/19 00:43:49;;;;;;;5.20;2.78;;;;;;;;;;4997329;28;20140;-71
2022/04/19 00:46:35;;;;;;;6.00;3.50;;;;;;;;;;4992829;28;20046;-71
2022/04/19 00:49:20;;;;;;;5.88;3.63;;;;;;;;;;5003777;28;20072;-71
2022/04/19 00:52:06;;;;;;;6.70;3.28;;;;;;;;;;4985001;28;20386;-72
2022/04/19 00:54:52;;;;;;;5.60;2.90;;;;;;;;;;4993693;28;20065;-72
2022/04/19 00:57:38;;;;;;;5.82;3.60;;;;;;;;;;4985085;28;20031;-71
2022/04/19 01:00:24;;;;;;;5.43;2.28;;;;;;;;;;4971872;28;20533;-70
2022/04/19 01:03:09;;;;;;;5.55;3.33;;;;;;;;;;4985003;28;20522;-69
2022/04/19 01:05:55;;;;;;;8.77;2.97;;;;;;;;;;4975007;28;20038;-68
2022/04/19 01:08:44;;;;;;;6.85;3.60;;;;;;;;;;4978558;28;20030;-68
2022/04/19 01:14:36;;;;;;;4.68;2.72;;;;;;;;;;5003317;28;20438;-69
2022/04/19 01:17:23;;;;;;;5.45;2.85;;;;;;;;;;4990276;28;20022;-70
2022/04/19 01:20:09;;;;;;;5.60;2.88;;;;;;;;;;4992378;28;20042;-72
2022/04/19 01:22:54;;;;;;;6.05;2.92;;;;;;;;;;4996243;28;20037;-72
2022/04/19 01:25:39;;;;;;;5.10;2.85;;;;;;;;;;5012058;28;20036;-72
2022/04/19 01:28:25;;;;;;;5.60;2.90;;;;;;;;;;4998361;28;20053;-69
2022/04/19 01:31:11;;;;;;;6.90;3.10;;;;;;;;;;4987989;28;20034;-69
2022/04/19 01:33:56;;;;;;;4.75;2.47;;;;;;;;;;4971760;28;20026;-68
2022/04/19 01:36:42;;;;;;;5.78;2.70;;;;;;;;;;5022114;28;20034;-70
2022/04/19 01:42:31;;;;;;;6.05;3.28;;;;;;;;;;4984468;28;20466;-69
2022/04/19 01:45:17;;;;;;;4.28;2.70;;;;;;;;;;4986130;28;20125;-68
2022/04/19 01:48:03;;;;;;;7.90;2.72;;;;;;;;;;4987598;28;20028;-70
2022/04/19 01:50:48;;;;;;;3.58;2.33;;;;;;;;;;4982211;28;20113;-69
2022/04/19 01:53:33;;;;;;;7.07;2.80;;;;;;;;;;4992226;28;20665;-70
2022/04/19 01:56:19;;;;;;;4.57;2.78;;;;;;;;;;5012020;28;20109;-69
2022/04/19 01:59:04;;;;;;;5.80;3.15;;;;;;;;;;4980916;28;20500;-70
2022/04/19 02:01:49;;;;;;;6.55;3.28;;;;;;;;;;5007237;28;20034;-71
2022/04/19 02:04:35;;;;;;;5.28;2.58;;;;;;;;;;4982898;28;20155;-71
2022/04/19 02:07:20;;;;;;;6.25;2.88;;;;;;;;;;4998380;28;20113;-69
2022/04/19 02:10:06;;;;;;;5.38;2.88;;;;;;;;;;4983857;28;20390;-71
2022/04/19 02:12:51;;;;;;;3.35;2.60;;;;;;;;;;4986926;28;20489;-70
2022/04/19 02:15:36;;;;;;;5.35;2.90;;;;;;;;;;4975131;28;20102;-71
2022/04/19 02:18:22;;;;;;;5.63;2.58;;;;;;;;;;4993933;28;20045;-72
2022/04/19 02:21:07;;;;;;;6.38;2.90;;;;;;;;;;4993160;28;20061;-72
2022/04/19 02:23:52;;;;;;;3.97;2.60;;;;;;;;;;4979505;28;20426;-69
2022/04/19 02:26:37;;;;;;;4.53;2.60;;;;;;;;;;4986059;28;20027;-70
2022/04/19 02:29:25;;;;;;;8.15;2.88;;;;;;;;;;4976754;28;20516;-73
2022/04/19 02:32:11;;;;;;;4.68;3.30;;;;;;;;;;4995353;28;20104;-75
2022/04/19 02:34:57;;;;;;;4.20;2.58;;;;;;;;;;4985018;28;20031;-69
2022/04/19 02:38:00;;;;;;;4.55;2.70;;;;;;;;;;5000187;28;20556;-74
2022/04/19 02:40:45;;;;;;;4.70;2.85;;;;;;;;;;4995920;28;20049;-70
2022/04/19 02:43:31;;;;;;;4.53;2.70;;;;;;;;;;4987847;28;20038;-70
2022/04/19 02:46:17;;;;;;;4.97;2.80;;;;;;;;;;5003222;28;20022;-70
2022/04/19 02:49:04;;;;;;;5.30;2.88;;;;;;;;;;4986305;28;20050;-68
2022/04/19 02:51:50;;;;;;;7.93;3.00;;;;;;;;;;4995077;28;20023;-71
2022/04/19 02:54:37;;;;;;;4.28;2.90;;;;;;;;;;4999680;28;20034;-72
2022/04/19 02:57:22;;;;;;;6.72;2.92;;;;;;;;;;4999732;28;20046;-73
2022/04/19 03:00:07;;;;;;;7.78;3.00;;;;;;;;;;4984698;28;20022;-71
2022/04/19 03:02:53;;;;;;;5.72;3.13;;;;;;;;;;4988566;28;20383;-73
2022/04/19 03:05:40;;;;;;;5.03;3.08;;;;;;;;;;5008950;28;20037;-72
2022/04/19 03:08:25;;;;;;;5.85;2.70;;;;;;;;;;5000392;28;20115;-76
2022/04/19 03:11:12;;;;;;;6.28;2.20;;;;;;;;;;4989209;28;20509;-73
2022/04/19 03:13:57;;;;;;;5.15;2.58;;;;;;;;;;5001992;28;20050;-72
2022/04/19 03:16:42;;;;;;;4.97;3.13;;;;;;;;;;4967796;28;20030;-71
2022/04/19 03:19:27;;;;;;;6.57;3.25;;;;;;;;;;4996477;28;20043;-72
2022/04/19 03:22:12;;;;;;;4.38;2.55;;;;;;;;;;4969621;28;20046;-73
2022/04/19 03:28:02;;;;;;;8.52;3.05;;;;;;;;;;4994046;28;20058;-74
2022/04/19 03:30:47;;;;;;;3.95;2.47;;;;;;;;;;4980681;28;20038;-73
2022/04/19 03:33:32;;;;;;;7.03;2.90;;;;;;;;;;4991726;28;20100;-69
2022/04/19 03:36:19;;;;;;;5.22;2.63;;;;;;;;;;5021796;28;20401;-71
2022/04/19 03:39:04;;;;;;;6.50;3.00;;;;;;;;;;4985926;28;20421;-72
2022/04/19 03:41:57;;;;;;;5.53;2.30;;;;;;;;;;5005769;28;20149;-71
2022/04/19 03:44:43;;;;;;;8.30;2.65;;;;;;;;;;4980469;28;20045;-72
2022/04/19 03:47:28;;;;;;;5.68;3.20;;;;;;;;;;5011563;28;20382;-70
2022/04/19 03:50:14;;;;;;;3.92;2.67;;;;;;;;;;4973660;28;20117;-70
2022/04/19 03:52:59;;;;;;;6.32;2.95;;;;;;;;;;4999999;28;20027;-71
2022/04/19 03:55:45;;;;;;;6.40;2.47;;;;;;;;;;5001350;28;20060;-69
2022/04/19 03:58:32;;;;;;;5.28;2.58;;;;;;;;;;4976152;28;20160;-68
2022/04/19 04:01:17;;;;;;;8.30;3.53;;;;;;;;;;5000999;28;20030;-71
2022/04/19 04:04:02;;;;;;;7.95;3.88;;;;;;;;;;4988301;28;20589;-78
2022/04/19 04:06:48;;;;;;;5.97;3.05;;;;;;;;;;4990141;28;20034;-71
2022/04/19 04:09:35;;;;;;;5.30;2.45;;;;;;;;;;5004825;28;20034;-69
2022/04/19 04:12:20;;;;;;;5.03;2.38;;;;;;;;;;5003366;28;20028;-69
2022/04/19 04:15:06;;;;;;;4.65;3.05;;;;;;;;;;4999523;28;20080;-70
2022/04/19 04:17:51;;;;;;;5.68;2.90;;;;;;;;;;5004378;28;20026;-72
2022/04/19 04:20:36;;;;;;;5.30;2.92;;;;;;;;;;4983956;28;20054;-69
2022/04/19 04:23:21;;;;;;;13.85;3.83;;;;;;;;;;4988450;28;20561;-74
2022/04/19 04:26:06;;;;;;;6.50;3.30;;;;;;;;;;4991252;28;20050;-74
2022/04/19 04:28:52;;;;;;;5.30;3.17;;;;;;;;;;4981728;28;20030;-73
2022/04/19 04:31:38;;;;;;;6.90;3.50;;;;;;;;;;4996163;28;20030;-76
2022/04/19 04:34:23;;;;;;;5.47;3.13;;;;;;;;;;4991149;28;20084;-75
2022/04/19 04:37:08;;;;;;;9.95;2.85;;;;;;;;;;5010432;28;20024;-75
2022/04/19 04:39:54;;;;;;;8.15;3.53;;;;;;;;;;4959637;28;20030;-70
2022/04/19 04:42:40;;;;;;;5.38;2.90;;;;;;;;;;5004589;28;20022;-69
2022/04/19 04:45:28;;;;;;;9.55;3.13;;;;;;;;;;4973189;28;20057;-69
2022/04/19 04:51:17;;;;;;;4.60;3.08;;;;;;;;;;4989777;28;20405;-69
2022/04/19 04:54:02;;;;;;;8.82;2.67;;;;;;;;;;4988002;28;20299;-69
2022/04/19 04:56:48;;;;;;;7.85;3.63;;;;;;;;;;4974780;28;20069;-72
2022/04/19 04:59:33;;;;;;;5.63;3.15;;;;;;;;;;5003807;28;20026;-70
2022/04/19 05:02:19;;;;;;;8.70;2.97;;;;;;;;;;4989581;28;20022;-72
2022/04/19 05:05:04;;;;;;;9.18;3.20;;;;;;;;;;4985714;28;20118;-69
2022/04/19 05:07:51;;;;;;;7.80;3.30;;;;;;;;;;5002768;28;20413;-69
2022/04/19 05:10:36;;;;;;;4.43;2.80;;;;;;;;;;4986314;28;20026;-69
2022/04/19 05:13:21;;;;;;;6.18;3.30;;;;;;;;;;4972757;28;20027;-71
2022/04/19 05:16:08;;;;;;;5.97;3.58;;;;;;;;;;4987423;28;20026;-70
2022/04/19 05:18:53;;;;;;;10.18;3.08;;;;;;;;;;4989468;28;20038;-70
2022/04/19 05:21:38;;;;;;;6.95;3.70;;;;;;;;;;4972643;28;20018;-68
2022/04/19 05:24:23;;;;;;;6.88;3.45;;;;;;;;;;4981448;28;20091;-72
2022/04/19 05:27:09;;;;;;;6.57;3.53;;;;;;;;;;4985926;28;20029;-69
2022/04/19 05:29:54;;;;;;;8.05;3.42;;;;;;;;;;4983338;28;20027;-69
2022/04/19 05:32:39;;;;;;;4.70;3.22;;;;;;;;;;4981461;28;20428;-69
2022/04/19 05:35:25;;;;;;;7.93;3.40;;;;;;;;;;4995463;28;20378;-68
2022/04/19 05:38:11;;;;;;;7.15;3.45;;;;;;;;;;4985334;28;20125;-71
2022/04/19 05:40:56;;;;;;;8.07;3.28;;;;;;;;;;4981430;28;20026;-71
2022/04/19 05:43:41;;;;;;;9.05;3.90;;;;;;;;;;4982458;28;20525;-71
2022/04/19 05:46:27;;;;;;;6.50;3.95;;;;;;;;;;4969806;28;20033;-69
2022/04/19 05:49:12;;;;;;;8.45;3.78;;;;;;;;;;4997883;28;20014;-71
2022/04/19 05:51:57;;;;;;;8.88;4.18;;;;;;;;;;4985151;28;20141;-72
2022/04/19 05:54:43;;;;;;;7.50;3.63;;;;;;;;;;4981978;28;20076;-68
2022/04/19 05:57:28;;;;;;;8.35;4.03;;;;;;;;;;4984342;28;20609;-71
2022/04/19 06:00:14;;;;;;;6.07;3.50;;;;;;;;;;4977347;28;20399;-73
2022/04/19 06:06:07;;;;;;;5.28;3.33;;;;;;;;;;4959928;28;20061;-70
2022/04/19 06:08:53;;;;;;;8.23;3.85;;;;;;;;;;4994223;28;20054;-76
2022/04/19 06:11:39;;;;;;;8.63;4.30;;;;;;;;;;4980411;28;20022;-72
2022/04/19 06:14:24;;;;;;;8.90;3.50;;;;;;;;;;4966197;28;20493;-72
2022/04/19 06:17:14;;;;;;;7.97;3.80;;;;;;;;;;4983092;28;20053;-71
2022/04/19 06:20:03;;;;;;;11.05;4.10;;;;;;;;;;4979827;28;20186;-70
2022/04/19 06:22:48;;;;;;;10.32;4.40;;;;;;;;;;4974333;28;20030;-72
2022/04/19 06:25:33;;;;;;;11.07;4.25;;;;;;;;;;4976916;28;20031;-72
2022/04/19 06:28:19;;;;;;;6.82;3.92;;;;;;;;;;4987831;28;20079;-72
2022/04/19 06:31:04;;;;;;;8.00;3.72;;;;;;;;;;5002215;28;20374;-74
2022/04/19 06:33:49;;;;;;;9.60;4.07;;;;;;;;;;4986517;28;20027;-78
2022/04/19 06:36:34;;;;;;;9.48;4.72;;;;;;;;;;4999416;28;20034;-78
2022/04/19 06:39:20;;;;;;;10.88;4.47;;;;;;;;;;4992638;28;20022;-77
2022/04/19 06:42:05;;;;;;;9.43;4.55;;;;;;;;;;4994972;28;20023;-71
2022/04/19 06:44:50;;;;;;;10.40;4.28;;;;;;;;;;4993895;28;20038;-72
2022/04/19 06:47:36;;;;;;;10.75;5.00;;;;;;;;;;4977689;28;20022;-65
2022/04/19 06:50:23;;;;;;;8.38;4.20;;;;;;;;;;4996470;28;20120;-67
2022/04/19 06:53:08;;;;;;;11.23;4.15;;;;;;;;;;4981150;28;20030;-72
2022/04/19 06:55:53;;;;;;;10.85;4.20;;;;;;;;;;4992690;28;20497;-73
2022/04/19 06:58:42;;;;;;;7.13;3.58;;;;;;;;;;4991440;28;20101;-76
2022/04/19 07:01:27;;;;;;;9.38;4.30;;;;;;;;;;4993132;28;20041;-75
2022/04/19 07:04:12;;;;;;;9.55;4.25;;;;;;;;;;4994746;28;20069;-77
2022/04/19 07:06:58;;;;;;;4.40;3.30;;;;;;;;;;4994602;28;20129;-73
2022/04/19 07:09:43;;;;;;;8.32;3.95;;;;;;;;;;4985705;28;20497;-71
2022/04/19 07:12:28;;;;;;;5.55;3.80;;;;;;;;;;5002075;28;20027;-71
2022/04/19 07:15:14;;;;;;;9.43;4.47;;;;;;;;;;4986153;28;20031;-69
2022/04/19 07:17:59;;;;;;;6.25;3.75;;;;;;;;;;4998752;28;20026;-65
2022/04/19 07:26:52;;;;;;;6.68;3.65;;;;;;;;;;4979857;28;20042;-69
2022/04/19 07:29:37;;;;;;;11.40;3.83;;;;;;;;;;4997822;28;20033;-71
2022/04/19 07:32:23;;;;;;;9.32;4.30;;;;;;;;;;4995381;28;20404;-72
2022/04/19 07:35:08;;;;;;;6.85;3.70;;;;;;;;;;4992255;28;20022;-71
2022/04/19 07:37:54;;;;;;;7.93;4.18;;;;;;;;;;4988454;28;20030;-74
2022/04/19 07:40:39;;;;;;;9.95;4.10;;;;;;;;;;4996160;28;20100;-72
2022/04/19 07:43:24;;;;;;;10.13;3.97;;;;;;;;;;4999919;28;20034;-71
2022/04/19 07:46:10;;;;;;;5.80;3.80;;;;;;;;;;5001345;28;20370;-71
2022/04/19 07:48:56;;;;;;;10.50;4.57;;;;;;;;;;4980004;28;20030;-68
2022/04/19 07:51:43;;;;;;;9.10;4.05;;;;;;;;;;4982676;28;20390;-70
2022/04/19 07:54:28;;;;;;;9.85;4.55;;;;;;;;;;4999420;28;20163;-67
2022/04/19 07:57:17;;;;;;;8.82;4.60;;;;;;;;;;5003391;28;20038;-70
2022/04/19 08:00:03;;;;;;;7.32;4.13;;;;;;;;;;5000932;28;20026;-72
2022/04/19 08:02:48;;;;;;;11.40;4.93;;;;;;;;;;4982780;28;20386;-70
2022/04/19 08:05:33;;;;;;;7.65;4.53;;;;;;;;;;4999659;28;20042;-69
2022/04/19 08:08:21;;;;;;;7.82;4.78;;;;;;;;;;4988896;28;20039;-67
2022/04/19 08:11:06;;;;;;;7.88;4.90;;;;;;;;;;4996962;28;20113;-74
2022/04/19 08:13:51;;;;;;;6.85;4.50;;;;;;;;;;4985566;28;20035;-70
2022/04/19 08:16:36;;;;;;;9.07;4.63;;;;;;;;;;4995556;28;20038;-71
2022/04/19 08:19:22;;;;;;;12.30;5.70;;;;;;;;;;4997543;28;20054;-72
2022/04/19 08:22:08;;;;;;;9.80;5.00;;;;;;;;;;4997777;28;20022;-71
2022/04/19 08:24:53;;;;;;;11.27;5.50;;;;;;;;;;4985816;28;20178;-70
2022/04/19 08:27:41;;;;;;;7.90;4.85;;;;;;;;;;4970776;28;20532;-71
2022/04/19 08:30:26;;;;;;;8.95;5.03;;;;;;;;;;4985101;28;20037;-70
2022/04/19 08:33:11;;;;;;;9.88;5.07;;;;;;;;;;4983943;28;20068;-69
2022/04/19 08:35:58;;;;;;;10.07;4.60;;;;;;;;;;5003796;28;20061;-69
2022/04/19 08:38:43;;;;;;;8.35;4.45;;;;;;;;;;4982876;28;20038;-61
2022/04/19 08:41:29;;;;;;;9.90;5.18;;;;;;;;;;4995754;28;20038;-70
2022/04/19 08:44:15;;;;;;;10.38;4.70;;;;;;;;;;4980720;28;20427;-72
2022/04/19 08:47:03;;;;;;;11.02;5.28;;;;;;;;;;4991402;28;20034;-74
2022/04/19 08:49:49;;;;;;;9.27;4.05;;;;;;;;;;4986263;28;20026;-70
2022/04/19 08:52:34;;;;;;;6.97;4.60;;;;;;;;;;4984896;28;20065;-74
2022/04/19 08:58:23;;;;;;;8.85;4.40;;;;;;;;;;4993178;28;20030;-62
2022/04/19 09:01:08;;;;;;;6.95;4.32;;;;;;;;;;4995287;28;20375;-63
2022/04/19 09:03:54;;;;;;;10.80;4.53;;;;;;;;;;4986406;28;20062;-61
2022/04/19 09:06:58;;;;;;;6.75;4.43;;;;;;;;;;4994946;28;20589;-63
2022/04/19 09:09:57;;;;;;;8.32;4.80;;;;;;;;;;4991032;28;20104;-62
2022/04/19 09:12:57;;;;;;;10.13;4.28;;;;;;;;;;4981045;28;20030;-61
2022/04/19 09:15:44;;;;;;;9.63;4.85;;;;;;;;;;4993981;28;20348;-73
2022/04/19 09:18:30;;;;;;;9.20;4.18;;;;;;;;;;4998127;28;20366;-62
2022/04/19 09:21:15;;;;;;;9.10;4.15;;;;;;;;;;4993373;28;20149;-62
2022/04/19 09:24:00;;;;;;;9.10;3.92;;;;;;;;;;4994915;28;20054;-60
2022/04/19 09:26:48;;;;;;;8.50;4.30;;;;;;;;;;4981335;28;20065;-62
2022/04/19 09:29:33;;;;;;;5.72;3.95;;;;;;;;;;4973995;28;20062;-64
2022/04/19 09:32:18;;;;;;;10.00;4.05;;;;;;;;;;4983887;28;20027;-62
2022/04/19 09:35:04;;;;;;;7.63;4.45;;;;;;;;;;4995240;28;20037;-66
2022/04/19 09:37:49;;;;;;;7.43;4.20;;;;;;;;;;4972634;28;20197;-60
2022/04/19 09:40:34;;;;;;;6.72;3.92;;;;;;;;;;4998317;28;20391;-61
2022/04/19 09:43:21;;;;;;;8.65;3.85;;;;;;;;;;4990382;28;20038;-60
2022/04/19 09:46:07;;;;;;;6.32;3.92;;;;;;;;;;4995036;28;20046;-62
2022/04/19 09:48:52;;;;;;;7.07;4.00;;;;;;;;;;4983143;28;20026;-59
2022/04/19 09:51:37;;;;;;;6.15;3.28;;;;;;;;;;4981622;28;20023;-60
2022/04/19 09:54:23;;;;;;;8.93;3.45;;;;;;;;;;4994132;28;20030;-70
2022/04/19 09:57:09;;;;;;;5.78;3.20;;;;;;;;;;4994997;28;20509;-70
2022/04/19 09:59:55;;;;;;;6.88;2.92;;;;;;;;;;4983133;28;20069;-72
2022/04/19 10:08:49;;;;;;;10.02;4.55;;;;;;;;;;4982446;28;20097;-73
2022/04/19 10:11:35;;;;;;;15.02;5.82;;;;;;;;;;4998160;28;20034;-73
2022/04/19 10:14:21;;;;;;;8.25;4.25;;;;;;;;;;4986811;28;20433;-68
2022/04/19 10:17:06;;;;;;;10.25;5.05;;;;;;;;;;4988122;28;20041;-73
2022/04/19 10:19:51;;;;;;;5.00;3.55;;;;;;;;;;4986517;28;20403;-72
2022/04/19 10:22:44;;;;;;;6.90;3.95;;;;;;;;;;4985617;28;20085;-68
2022/04/19 10:25:40;;;;;;;6.93;3.65;;;;;;;;;;5003272;28;20446;-69
2022/04/19 10:28:27;;;;;;;7.50;3.70;;;;;;;;;;4982705;28;20018;-72
2022/04/19 10:31:13;;;;;;;6.28;3.67;;;;;;;;;;4987311;28;20229;-59
2022/04/19 10:34:02;;;;;;;5.65;3.38;;;;;;;;;;4971796;28;20025;-61
2022/04/19 10:36:54;;;;;;;6.70;3.42;;;;;;;;;;4997348;28;20097;-59
2022/04/19 10:39:43;;;;;;;5.95;3.35;;;;;;;;;;4996480;28;20112;-60
2022/04/19 10:42:32;;;;;;;4.93;3.28;;;;;;;;;;4967808;28;20027;-65
2022/04/19 10:45:18;;;;;;;7.07;3.33;;;;;;;;;;4982708;28;20034;-62
2022/04/19 10:48:03;;;;;;;8.32;3.65;;;;;;;;;;4988064;28;20280;-67
2022/04/19 10:50:51;;;;;;;8.05;4.13;;;;;;;;;;5000140;28;20033;-63
2022/04/19 10:53:36;;;;;;;5.45;3.58;;;;;;;;;;4985159;28;20053;-60
2022/04/19 10:56:22;;;;;;;6.88;3.70;;;;;;;;;;4987699;28;20045;-61
2022/04/19 10:59:20;;;;;;;5.95;3.70;;;;;;;;;;4981648;28;20492;-62
2022/04/19 11:02:25;;;;;;;6.47;3.50;;;;;;;;;;4980495;28;20134;-62
2022/04/19 11:05:29;;;;;;;4.63;2.97;;;;;;;;;;4990935;28;20541;-63
2022/04/19 11:08:21;;;;;;;6.60;3.83;;;;;;;;;;4973340;28;20030;-64
2022/04/19 11:11:20;;;;;;;5.70;3.33;;;;;;;;;;4990309;28;20450;-63
2022/04/19 11:14:19;;;;;;;6.13;3.78;;;;;;;;;;4994189;28;20030;-64
2022/04/19 11:17:24;;;;;;;5.07;3.45;;;;;;;;;;4992094;28;20033;-66
2022/04/19 11:20:10;;;;;;;8.02;3.80;;;;;;;;;;4990988;28;20039;-62
2022/04/19 11:23:01;;;;;;;5.40;3.38;;;;;;;;;;4970332;28;20145;-62
2022/04/19 11:25:47;;;;;;;4.93;3.40;;;;;;;;;;4988387;28;20031;-62
2022/04/19 11:28:32;;;;;;;9.05;4.68;;;;;;;;;;4983092;28;20437;-73
2022/04/19 11:31:17;;;;;;;6.82;3.60;;;;;;;;;;4990507;28;20030;-71
2022/04/19 11:34:10;;;;;;;5.97;3.15;;;;;;;;;;4982188;28;20089;-72
2022/04/19 11:36:56;;;;;;;6.05;3.63;;;;;;;;;;4979384;28;20486;-67
2022/04/19 11:49:00;;;;;;;5.88;3.75;;;;;;;;;;5000860;28;20450;-62
2022/04/19 11:51:46;;;;;;;6.43;4.03;;;;;;;;;;4996609;28;20023;-62
2022/04/19 11:54:32;;;;;;;7.13;3.60;;;;;;;;;;5000709;28;20062;-62
2022/04/19 11:57:18;;;;;;;4.88;3.50;;;;;;;;;;4981111;28;20037;-63
2022/04/19 12:00:04;;;;;;;5.05;3.58;;;;;;;;;;4991714;28;20041;-63
2022/04/19 12:02:52;;;;;;;5.05;3.38;;;;;;;;;;4983193;28;20096;-71
2022/04/19 12:05:38;;;;;;;6.05;3.60;;;;;;;;;;4993089;28;20035;-70
2022/04/19 12:08:41;;;;;;;6.43;4.00;;;;;;;;;;4983869;28;20025;-66
2022/04/19 12:11:27;;;;;;;4.88;3.03;;;;;;;;;;4997189;28;20026;-67
2022/04/19 12:14:26;;;;;;;5.72;3.28;;;;;;;;;;4989774;28;20371;-67
2022/04/19 12:17:18;;;;;;;6.30;3.93;;;;;;;;;;4990578;28;20019;-69
2022/04/19 12:20:04;;;;;;;5.68;4.15;;;;;;;;;;4992815;28;20301;-65
2022/04/19 12:22:49;;;;;;;8.52;3.78;;;;;;;;;;4978016;28;20540;-70
2022/04/19 12:25:34;;;;;;;8.13;3.80;;;;;;;;;;4998345;28;20030;-70
2022/04/19 12:28:20;;;;;;;8.50;4.90;;;;;;;;;;5001404;28;20080;-70
2022/04/19 12:31:05;;;;;;;6.70;4.25;;;;;;;;;;4983440;28;20031;-69
2022/04/19 12:33:56;;;;;;;6.97;4.43;;;;;;;;;;4992694;28;20069;-67
2022/04/19 12:36:49;;;;;;;10.07;4.45;;;;;;;;;;4998895;28;20623;-72
2022/04/19 12:39:34;;;;;;;7.20;4.70;;;;;;;;;;4984148;28;20034;-69
2022/04/19 12:42:20;;;;;;;7.85;4.45;;;;;;;;;;4986379;28;20058;-68
2022/04/19 12:45:06;;;;;;;8.07;4.38;;;;;;;;;;4994548;28;20497;-67
2022/04/19 12:47:53;;;;;;;6.82;4.22;;;;;;;;;;4982314;28;20027;-68
2022/04/19 12:50:38;;;;;;;6.60;4.15;;;;;;;;;;4985466;28;20031;-65
2022/04/19 12:53:24;;;;;;;7.50;4.30;;;;;;;;;;4992020;28;20061;-67
2022/04/19 12:56:37;;;;;;;5.57;4.10;;;;;;;;;;4973269;28;20042;-68
2022/04/19 12:59:23;;;;;;;8.75;5.07;;;;;;;;;;4999016;28;20030;-72
2022/04/19 13:02:08;;;;;;;9.70;4.82;;;;;;;;;;4999776;28;20030;-69
2022/04/19 13:04:53;;;;;;;9.93;4.60;;;;;;;;;;4970382;28;20069;-68
2022/04/19 13:13:48;;;;;;;7.18;4.65;;;;;;;;;;4993651;28;20117;-70
2022/04/19 13:16:34;;;;;;;5.28;3.50;;;;;;;;;;4998432;28;20097;-66
2022/04/19 13:19:20;;;;;;;4.82;3.40;;;;;;;;;;4982586;28;20178;-71
2022/04/19 13:22:05;;;;;;;5.60;2.83;;;;;;;;;;4981928;28;20038;-72
2022/04/19 13:24:50;;;;;;;4.70;3.08;;;;;;;;;;4996094;28;20029;-73
2022/04/19 13:27:36;;;;;;;5.63;3.83;;;;;;;;;;4968231;28;20074;-70
2022/04/19 13:30:21;;;;;;;6.00;4.07;;;;;;;;;;4996906;28;20097;-74
2022/04/19 13:33:07;;;;;;;6.30;3.80;;;;;;;;;;4971663;28;20030;-67
2022/04/19 13:35:52;;;;;;;6.35;3.88;;;;;;;;;;4995893;28;20497;-75
2022/04/19 13:38:38;;;;;;;8.07;4.60;;;;;;;;;;4992866;28;20234;-71
2022/04/19 13:41:23;;;;;;;7.45;4.15;;;;;;;;;;4987690;28;20061;-68
2022/04/19 13:44:12;;;;;;;10.75;3.80;;;;;;;;;;4973572;28;20022;-71
2022/04/19 13:46:57;;;;;;;6.13;4.13;;;;;;;;;;4994619;28;20085;-70
2022/04/19 13:49:43;;;;;;;6.38;3.58;;;;;;;;;;4972996;28;20100;-70
2022/04/19 13:52:28;;;;;;;5.88;3.33;;;;;;;;;;4986702;28;20026;-75
2022/04/19 13:55:18;;;;;;;6.70;4.05;;;;;;;;;;4980576;28;20170;-73
2022/04/19 13:58:03;;;;;;;6.93;4.30;;;;;;;;;;4985325;28;20022;-78
2022/04/19 14:00:48;;;;;;;5.68;3.65;;;;;;;;;;4985135;28;20034;-73
2022/04/19 14:03:34;;;;;;;9.18;4.25;;;;;;;;;;4978583;28;20053;-75
2022/04/19 14:06:20;;;;;;;5.88;3.55;;;;;;;;;;4986712;28;20386;-76
2022/04/19 14:09:06;;;;;;;7.50;3.78;;;;;;;;;;4982546;28;20022;-74
2022/04/19 14:11:51;;;;;;;7.88;4.35;;;;;;;;;;4996001;28;20061;-69
2022/04/19 14:14:37;;;;;;;9.40;4.35;;;;;;;;;;4995361;28;20038;-69
2022/04/19 14:17:22;;;;;;;7.80;4.47;;;;;;;;;;4992583;28;20030;-70
2022/04/19 14:20:08;;;;;;;5.68;3.70;;;;;;;;;;4984181;28;20081;-67
2022/04/19 14:22:53;;;;;;;7.80;4.22;;;;;;;;;;4980808;28;20030;-71
2022/04/19 14:25:38;;;;;;;8.02;4.32;;;;;;;;;;4978907;28;20036;-66
2022/04/19 14:33:15;;;;;;;6.35;3.80;;;;;;;;;;4978445;28;20447;-77
2022/04/19 14:34:33;;;;;;;7.50;4.43;;;;;;;;;;4993424;28;20045;-75
2022/04/19 14:37:19;;;;;;;6.47;4.50;;;;;;;;;;4987399;28;20236;-71
2022/04/19 14:40:05;;;;;;;5.32;3.80;;;;;;;;;;4997260;28;20041;-74
2022/04/19 14:42:50;;;;;;;6.80;4.07;;;;;;;;;;4965786;28;20114;-73
2022/04/19 14:45:35;;;;;;;7.57;4.07;;;;;;;;;;4993822;28;20200;-72
2022/04/19 14:48:20;;;;;;;9.27;4.82;;;;;;;;;;4980888;28;20381;-76
2022/04/19 14:54:10;;;;;;;5.75;3.70;;;;;;;;;;4995336;28;20026;-69
2022/04/19 14:56:55;;;;;;;6.13;3.40;;;;;;;;;;4997302;28;20108;-69
2022/04/19 14:59:42;;;;;;;6.65;3.90;;;;;;;;;;4996539;28;20034;-71
2022/04/19 15:02:27;;;;;;;6.63;3.90;;;;;;;;;;4981751;28;20053;-70
2022/04/19 15:05:12;;;;;;;7.82;4.20;;;;;;;;;;4994643;28;20479;-70
2022/04/19 15:07:57;;;;;;;8.02;3.85;;;;;;;;;;4987802;28;20045;-71
2022/04/19 15:10:43;;;;;;;8.18;3.65;;;;;;;;;;4999838;28;20113;-75
2022/04/19 15:13:28;;;;;;;6.82;3.60;;;;;;;;;;4993657;28;20113;-76
2022/04/19 15:16:13;;;;;;;6.25;3.50;;;;;;;;;;4998594;28;20043;-76
2022/04/19 15:18:58;;;;;;;6.43;4.38;;;;;;;;;;5016077;28;20064;-75
2022/04/19 15:21:44;;;;;;;6.13;3.17;;;;;;;;;;4979618;28;20118;-74
2022/04/19 15:24:29;;;;;;;5.75;3.35;;;;;;;;;;4996834;28;20109;-77
2022/04/19 15:27:15;;;;;;;7.07;3.20;;;;;;;;;;4982174;28;20026;-76
2022/04/19 15:30:00;;;;;;;6.15;3.70;;;;;;;;;;4983158;28;20022;-76
2022/04/19 15:32:45;;;;;;;6.60;4.03;;;;;;;;;;4973381;28;20533;-76
2022/04/19 15:35:30;;;;;;;5.57;3.78;;;;;;;;;;4989680;28;20046;-77
2022/04/19 15:38:15;;;;;;;5.32;3.30;;;;;;;;;;4984478;28;20121;-75
2022/04/19 15:41:01;;;;;;;4.93;3.13;;;;;;;;;;4989282;28;20049;-76
2022/04/19 15:43:46;;;;;;;6.45;3.35;;;;;;;;;;4988936;28;20034;-75
2022/04/19 15:46:31;;;;;;;5.90;3.28;;;;;;;;;;4988455;28;20030;-76
2022/04/19 15:49:16;;;;;;;4.60;3.10;;;;;;;;;;4990988;28;20092;-76
2022/04/19 15:52:02;;;;;;;5.43;3.22;;;;;;;;;;4991732;28;20109;-76
2022/04/19 15:54:47;;;;;;;5.88;3.05;;;;;;;;;;4994985;28;20065;-77
2022/04/19 15:57:32;;;;;;;6.05;3.03;;;;;;;;;;4989200;28;20101;-76
2022/04/19 16:00:18;;;;;;;4.22;3.05;;;;;;;;;;4990679;28;20049;-71
2022/04/19 16:03:04;;;;;;;4.68;3.08;;;;;;;;;;4990200;28;20110;-77
2022/04/19 16:05:49;;;;;;;4.00;2.83;;;;;;;;;;4988556;28;20019;-67
2022/04/19 16:08:34;;;;;;;5.32;2.63;;;;;;;;;;5004157;28;20429;-68
2022/04/19 16:11:20;;;;;;;6.70;3.95;;;;;;;;;;4972406;28;20054;-67
2022/04/19 16:14:05;;;;;;;6.43;3.30;;;;;;;;;;4981826;28;20036;-72
2022/04/19 16:26:03;;;;;;;8.52;3.72;;;;;;;;;;4982082;28;20532;-69
2022/04/19 16:28:49;;;;;;;8.50;3.30;;;;;;;;;;4986684;28;20038;-67
2022/04/19 16:31:35;;;;;;;5.82;2.95;;;;;;;;;;4992599;28;20018;-71
2022/04/19 16:34:20;;;;;;;8.02;3.17;;;;;;;;;;4985625;28;20620;-69
2022/04/19 16:37:05;;;;;;;6.45;2.92;;;;;;;;;;4989537;28;20096;-73
2022/04/19 16:39:50;;;;;;;7.88;2.80;;;;;;;;;;5003798;28;20034;-68
2022/04/19 16:42:36;;;;;;;4.28;2.80;;;;;;;;;;4976541;28;20466;-70
2022/04/19 16:45:21;;;;;;;6.05;3.25;;;;;;;;;;4999569;28;20022;-69
2022/04/19 16:48:07;;;;;;;7.55;3.20;;;;;;;;;;4996356;28;20035;-73
2022/04/19 16:50:52;;;;;;;8.60;6.63;;;;;;;;;;4994675;28;20031;-70
2022/04/19 16:53:37;;;;;;;7.82;4.63;;;;;;;;;;4991224;28;20113;-69
2022/04/19 16:56:22;;;;;;;35.88;28.83;;;;;;;;;;5001450;28;20042;-65
2022/04/19 16:59:08;;;;;;;25.48;19.33;;;;;;;;;;5001995;28;20034;-78
2022/04/19 17:01:53;;;;;;;14.82;9.25;;;;;;;;;;5003855;28;20041;-81
2022/04/19 17:04:38;;;;;;;6.45;3.30;;;;;;;;;;5010384;28;20022;-76
2022/04/19 17:07:24;;;;;;;4.13;2.88;;;;;;;;;;4992034;28;20026;-78
2022/04/19 17:10:09;;;;;;;5.10;2.95;;;;;;;;;;4984920;28;20019;-77
2022/04/19 17:12:54;;;;;;;4.70;3.05;;;;;;;;;;4997058;28;20367;-80
2022/04/19 17:15:40;;;;;;;4.20;2.63;;;;;;;;;;4995730;28;20033;-67
2022/04/19 17:18:25;;;;;;;4.47;2.97;;;;;;;;;;4985116;28;20078;-70
2022/04/19 17:21:10;;;;;;;3.97;2.85;;;;;;;;;;4987082;28;20039;-69
2022/04/19 17:23:58;;;;;;;3.70;2.55;;;;;;;;;;4980536;28;20039;-69
2022/04/19 17:26:44;;;;;;;6.68;3.33;;;;;;;;;;4996823;28;20482;-68
2022/04/19 17:29:32;;;;;;;10.40;3.10;;;;;;;;;;4976155;28;20080;-68
2022/04/19 17:32:18;;;;;;;4.05;2.65;;;;;;;;;;5010587;28;20521;-69
2022/04/19 17:35:03;;;;;;;4.38;2.38;;;;;;;;;;4979263;28;20050;-68
2022/04/19 17:37:49;;;;;;;6.50;2.80;;;;;;;;;;5002093;28;20380;-71